Donner, Louisiana
Current Conditions -  °F | °C
As of 6:35 PM on Thursday 18 Dec 2014 (Local Time) from KHUM Reporting Station
Moderate Rain Moderate Rain  
Wind Chill: 61°   Ceiling: 11000
Heat Index: 61°   Visibility: 10mi
Dew Point: 60°   Wind: 3mph
Humidity: 95%   Direction: 110°ESE
Pressure: 30.09"   Gusts: NA
Location:  29.7°N, 90.94°W
Report Text: KHUM 190035Z AUTO 11003KT 10SM RA SCT065 SCT090 OVC110 16/16 A3009 RMK AO2 P0005 T01630155
Loading
Personal Weather Stations






























Interactive Weather Map New forecast layout! Learn more

10-Day Weather Forecast

Advertisements
Track Severe Weather on mobile